createdAt,value
2022-12-31T00:00:50.437Z,0
2022-12-31T00:01:50.429Z,0
2022-12-31T00:02:50.476Z,0
2022-12-31T00:03:50.366Z,0
2022-12-31T00:04:50.384Z,0
2022-12-31T00:05:50.358Z,0
2022-12-31T00:06:50.362Z,0
2022-12-31T00:07:50.396Z,0
2022-12-31T00:08:50.376Z,0
2022-12-31T00:09:50.384Z,0
2022-12-31T00:10:50.362Z,0
2022-12-31T00:11:50.376Z,0
2022-12-31T00:12:50.360Z,0
2022-12-31T00:13:50.372Z,0
2022-12-31T00:14:50.376Z,0
2022-12-31T00:15:50.355Z,0
2022-12-31T00:16:50.454Z,0
2022-12-31T00:17:50.353Z,0
2022-12-31T00:18:50.366Z,0
2022-12-31T00:19:50.376Z,0
2022-12-31T00:20:50.365Z,0
2022-12-31T00:21:50.363Z,0
2022-12-31T00:22:50.377Z,0
2022-12-31T00:23:50.357Z,0
2022-12-31T00:24:50.383Z,0
2022-12-31T00:25:50.357Z,0
2022-12-31T00:26:50.358Z,0
2022-12-31T00:27:50.364Z,0
2022-12-31T00:28:50.367Z,0
2022-12-31T00:29:50.374Z,0
2022-12-31T00:30:50.389Z,0
2022-12-31T00:31:50.359Z,0
2022-12-31T00:32:50.359Z,0
2022-12-31T00:33:50.355Z,0
2022-12-31T00:34:50.375Z,0
2022-12-31T00:35:50.367Z,0
2022-12-31T00:36:50.358Z,0
2022-12-31T00:37:50.368Z,0
2022-12-31T00:38:50.360Z,0
2022-12-31T00:39:50.370Z,0
2022-12-31T00:40:50.351Z,0
2022-12-31T00:41:50.362Z,0
2022-12-31T00:42:50.362Z,0
2022-12-31T00:43:50.346Z,0
2022-12-31T00:44:50.375Z,0
2022-12-31T00:45:50.397Z,0
2022-12-31T00:46:50.358Z,0
2022-12-31T00:47:50.357Z,0
2022-12-31T00:48:50.356Z,0
2022-12-31T00:49:50.374Z,0
2022-12-31T00:50:50.354Z,0
2022-12-31T00:51:50.342Z,0
2022-12-31T00:52:50.355Z,0
2022-12-31T00:53:50.353Z,0
2022-12-31T00:54:50.359Z,0
2022-12-31T00:55:50.347Z,0
2022-12-31T00:56:50.351Z,0
2022-12-31T00:57:50.345Z,0
2022-12-31T00:58:50.343Z,0
2022-12-31T00:59:50.364Z,0
2022-12-31T01:00:50.362Z,0
2022-12-31T01:01:50.407Z,0
2022-12-31T01:02:50.457Z,0
2022-12-31T01:03:50.342Z,0
2022-12-31T01:04:50.355Z,0
2022-12-31T01:05:50.394Z,0
2022-12-31T01:06:50.338Z,0
2022-12-31T01:07:50.354Z,0
2022-12-31T01:08:50.343Z,0
2022-12-31T01:09:50.361Z,0
2022-12-31T01:10:50.347Z,0
2022-12-31T01:11:50.346Z,0
2022-12-31T01:12:50.346Z,0
2022-12-31T01:13:50.344Z,0
2022-12-31T01:14:50.360Z,0
2022-12-31T01:15:50.379Z,0
2022-12-31T01:16:50.353Z,0
2022-12-31T01:17:50.358Z,0
2022-12-31T01:18:50.343Z,0
2022-12-31T01:19:50.383Z,0
2022-12-31T01:20:50.377Z,0
2022-12-31T01:21:50.350Z,0
2022-12-31T01:22:50.371Z,0
2022-12-31T01:23:50.358Z,0
2022-12-31T01:24:50.376Z,0
2022-12-31T01:25:50.362Z,0
2022-12-31T01:26:50.352Z,0
2022-12-31T01:27:50.361Z,0
2022-12-31T01:28:50.357Z,0
2022-12-31T01:29:50.380Z,0
2022-12-31T01:30:50.395Z,0
2022-12-31T01:31:50.370Z,0
2022-12-31T01:32:50.360Z,0
2022-12-31T01:33:50.377Z,0
2022-12-31T01:34:50.396Z,0
2022-12-31T01:35:50.355Z,0
2022-12-31T01:36:50.352Z,0
2022-12-31T01:37:50.384Z,0
2022-12-31T01:38:50.359Z,0
2022-12-31T01:39:50.382Z,0
2022-12-31T01:40:50.352Z,0
2022-12-31T01:41:50.351Z,0
2022-12-31T01:42:50.356Z,0
2022-12-31T01:43:50.369Z,0
2022-12-31T01:44:50.396Z,0
2022-12-31T01:45:50.357Z,0
2022-12-31T01:46:50.359Z,0
2022-12-31T01:47:50.359Z,0
2022-12-31T01:48:50.354Z,0
2022-12-31T01:49:50.374Z,0
2022-12-31T01:50:50.364Z,0
2022-12-31T01:51:50.359Z,0
2022-12-31T01:52:50.376Z,0
2022-12-31T01:53:50.365Z,0
2022-12-31T01:54:50.374Z,0
2022-12-31T01:55:50.378Z,0
2022-12-31T01:56:50.349Z,0
2022-12-31T01:57:50.359Z,0
2022-12-31T01:58:50.353Z,0
2022-12-31T01:59:50.377Z,0
2022-12-31T02:00:50.343Z,0
2022-12-31T02:01:50.412Z,0
2022-12-31T02:02:50.446Z,0
2022-12-31T02:03:50.343Z,0
2022-12-31T02:04:50.358Z,0
2022-12-31T02:05:50.351Z,0
2022-12-31T02:06:50.346Z,0
2022-12-31T02:07:50.369Z,0
2022-12-31T02:08:50.349Z,0
2022-12-31T02:09:50.359Z,0
2022-12-31T02:10:50.341Z,0
2022-12-31T02:11:50.357Z,0
2022-12-31T02:12:50.347Z,0
2022-12-31T02:13:55.007Z,0
2022-12-31T02:14:50.365Z,0
2022-12-31T02:15:50.424Z,0
2022-12-31T02:16:50.349Z,0
2022-12-31T02:17:50.338Z,0
2022-12-31T02:18:50.340Z,0
2022-12-31T02:19:50.379Z,0
2022-12-31T02:20:50.338Z,0
2022-12-31T02:21:50.338Z,0
2022-12-31T02:22:50.353Z,0
2022-12-31T02:23:50.351Z,0
2022-12-31T02:24:50.368Z,0
2022-12-31T02:25:50.345Z,0
2022-12-31T02:26:50.347Z,0
2022-12-31T02:27:50.356Z,0
2022-12-31T02:28:50.350Z,0
2022-12-31T02:29:50.372Z,0
2022-12-31T02:30:50.517Z,0
2022-12-31T02:31:50.359Z,0
2022-12-31T02:32:50.361Z,0
2022-12-31T02:33:50.358Z,0
2022-12-31T02:34:50.391Z,0
2022-12-31T02:35:50.350Z,0
2022-12-31T02:36:50.353Z,0
2022-12-31T02:37:50.377Z,0
2022-12-31T02:38:50.356Z,0
2022-12-31T02:39:50.378Z,0
2022-12-31T02:40:50.368Z,0
2022-12-31T02:41:50.351Z,0
2022-12-31T02:42:55.367Z,0
2022-12-31T02:43:50.354Z,0
2022-12-31T02:44:50.386Z,0
2022-12-31T02:45:50.360Z,0
2022-12-31T02:46:50.397Z,0
2022-12-31T02:47:50.356Z,0
2022-12-31T02:48:50.350Z,0
2022-12-31T02:49:50.363Z,0
2022-12-31T02:50:50.356Z,0
2022-12-31T02:51:50.346Z,0
2022-12-31T02:52:50.364Z,0
2022-12-31T02:53:50.360Z,0
2022-12-31T02:54:50.378Z,0
2022-12-31T02:55:50.362Z,0
2022-12-31T02:56:50.392Z,0
2022-12-31T02:57:50.362Z,0
2022-12-31T02:58:50.371Z,0
2022-12-31T02:59:50.388Z,0
2022-12-31T03:00:50.410Z,0
2022-12-31T03:01:50.430Z,0
2022-12-31T03:02:50.372Z,0
2022-12-31T03:03:50.352Z,0
2022-12-31T03:04:50.371Z,0
2022-12-31T03:05:50.351Z,0
2022-12-31T03:06:50.363Z,0
2022-12-31T03:07:50.370Z,0
2022-12-31T03:08:50.350Z,0
2022-12-31T03:09:50.374Z,0
2022-12-31T03:10:50.342Z,0
2022-12-31T03:11:50.345Z,0
2022-12-31T03:12:50.342Z,0
2022-12-31T03:13:50.337Z,0
2022-12-31T03:14:50.350Z,0
2022-12-31T03:15:50.358Z,0
2022-12-31T03:16:50.339Z,0
2022-12-31T03:17:50.339Z,0
2022-12-31T03:18:50.332Z,0
2022-12-31T03:19:50.352Z,0
2022-12-31T03:20:50.343Z,0
2022-12-31T03:21:50.353Z,0
2022-12-31T03:22:50.359Z,0
2022-12-31T03:23:50.338Z,0
2022-12-31T03:24:50.357Z,0
2022-12-31T03:25:50.344Z,0
2022-12-31T03:26:50.342Z,0
2022-12-31T03:27:50.347Z,0
2022-12-31T03:28:50.342Z,0
2022-12-31T03:29:50.357Z,0
2022-12-31T03:30:50.344Z,0
2022-12-31T03:31:50.381Z,0
2022-12-31T03:32:50.340Z,0
2022-12-31T03:33:50.392Z,0
2022-12-31T03:34:50.380Z,0
2022-12-31T03:35:50.338Z,0
2022-12-31T03:36:50.341Z,0
2022-12-31T03:37:50.359Z,0
2022-12-31T03:38:52.805Z,0
2022-12-31T03:39:50.372Z,0
2022-12-31T03:40:50.352Z,0
2022-12-31T03:41:50.362Z,0
2022-12-31T03:42:50.360Z,0
2022-12-31T03:43:50.373Z,0
2022-12-31T03:44:50.385Z,0
2022-12-31T03:45:50.384Z,0
2022-12-31T03:46:50.361Z,0
2022-12-31T03:47:50.361Z,0
2022-12-31T03:48:50.354Z,0
2022-12-31T03:49:50.370Z,0
2022-12-31T03:50:50.380Z,0
2022-12-31T03:51:50.345Z,0
2022-12-31T03:52:50.384Z,0
2022-12-31T03:53:50.383Z,0
2022-12-31T03:54:50.378Z,0
2022-12-31T03:55:50.347Z,0
2022-12-31T03:56:52.096Z,0
2022-12-31T03:57:50.354Z,0
2022-12-31T03:58:50.353Z,0
2022-12-31T03:59:50.382Z,0
2022-12-31T04:00:50.447Z,0
2022-12-31T04:01:50.403Z,0
2022-12-31T04:02:50.376Z,0
2022-12-31T04:03:50.352Z,0
2022-12-31T04:04:50.380Z,0
2022-12-31T04:05:50.354Z,0
2022-12-31T04:06:50.358Z,0
2022-12-31T04:07:50.374Z,0
2022-12-31T04:08:50.357Z,0
2022-12-31T04:09:50.381Z,0
2022-12-31T04:10:50.382Z,0
2022-12-31T04:11:50.362Z,0
2022-12-31T04:12:50.365Z,0
2022-12-31T04:13:50.352Z,0
2022-12-31T04:14:50.360Z,0
2022-12-31T04:15:50.355Z,0
2022-12-31T04:16:50.434Z,0
2022-12-31T04:17:50.358Z,0
2022-12-31T04:18:50.351Z,0
2022-12-31T04:19:50.368Z,0
2022-12-31T04:20:50.361Z,0
2022-12-31T04:21:50.351Z,0
2022-12-31T04:22:50.378Z,0
2022-12-31T04:23:50.345Z,0
2022-12-31T04:24:50.390Z,0
2022-12-31T04:25:50.347Z,0
2022-12-31T04:26:50.340Z,0
2022-12-31T04:27:50.338Z,0
2022-12-31T04:28:50.341Z,0
2022-12-31T04:29:50.359Z,0
2022-12-31T04:30:50.347Z,0
2022-12-31T04:31:50.378Z,0
2022-12-31T04:32:50.341Z,0
2022-12-31T04:33:50.344Z,0
2022-12-31T04:34:50.387Z,0
2022-12-31T04:35:50.343Z,0
2022-12-31T04:36:50.341Z,0
2022-12-31T04:37:50.374Z,0
2022-12-31T04:38:50.346Z,0
2022-12-31T04:39:50.379Z,0
2022-12-31T04:40:50.343Z,0
2022-12-31T04:41:50.344Z,0
2022-12-31T04:42:50.341Z,0
2022-12-31T04:43:50.344Z,0
2022-12-31T04:44:50.355Z,0
2022-12-31T04:45:50.384Z,0
2022-12-31T04:46:50.342Z,0
2022-12-31T04:47:50.339Z,0
2022-12-31T04:48:50.351Z,0
2022-12-31T04:49:50.365Z,0
2022-12-31T04:50:50.338Z,0
2022-12-31T04:51:50.342Z,0
2022-12-31T04:52:50.373Z,0
2022-12-31T04:53:50.351Z,0
2022-12-31T04:54:50.463Z,0
2022-12-31T04:55:50.362Z,0
2022-12-31T04:56:50.356Z,0
2022-12-31T04:57:50.353Z,0
2022-12-31T04:58:50.357Z,0
2022-12-31T04:59:50.372Z,0
2022-12-31T05:00:50.399Z,0
2022-12-31T05:01:50.512Z,0
2022-12-31T05:02:50.610Z,0
2022-12-31T05:03:50.368Z,0
2022-12-31T05:04:50.370Z,0
2022-12-31T05:05:50.453Z,0
2022-12-31T05:06:50.364Z,0
2022-12-31T05:07:50.365Z,0
2022-12-31T05:08:50.348Z,0
2022-12-31T05:09:50.372Z,0
2022-12-31T05:10:50.357Z,0
2022-12-31T05:11:50.368Z,0
2022-12-31T05:12:50.361Z,0
2022-12-31T05:13:50.383Z,0
2022-12-31T05:14:50.393Z,0
2022-12-31T05:15:50.362Z,0
2022-12-31T05:16:50.421Z,0
2022-12-31T05:17:50.364Z,0
2022-12-31T05:18:50.355Z,0
2022-12-31T05:19:50.390Z,0
2022-12-31T05:20:50.370Z,0
2022-12-31T05:21:50.346Z,0
2022-12-31T05:22:50.370Z,0
2022-12-31T05:23:50.353Z,0
2022-12-31T05:24:50.371Z,0
2022-12-31T05:25:50.360Z,0
2022-12-31T05:26:50.352Z,0
2022-12-31T05:27:50.344Z,0
2022-12-31T05:28:50.354Z,0
2022-12-31T05:29:50.360Z,0
2022-12-31T05:30:50.490Z,0
2022-12-31T05:31:50.361Z,0
2022-12-31T05:32:50.364Z,0
2022-12-31T05:33:50.355Z,0
2022-12-31T05:34:50.386Z,0
2022-12-31T05:35:50.359Z,0
2022-12-31T05:36:50.374Z,0
2022-12-31T05:37:50.375Z,0
2022-12-31T05:38:50.365Z,0
2022-12-31T05:39:50.358Z,0
2022-12-31T05:40:50.342Z,0
2022-12-31T05:41:50.345Z,0
2022-12-31T05:42:50.337Z,0
2022-12-31T05:43:50.343Z,0
2022-12-31T05:44:50.356Z,0
2022-12-31T05:45:50.394Z,0
2022-12-31T05:46:50.342Z,0
2022-12-31T05:47:50.336Z,0
2022-12-31T05:48:50.352Z,0
2022-12-31T05:49:50.351Z,0
2022-12-31T05:50:50.338Z,0
2022-12-31T05:51:50.348Z,0
2022-12-31T05:52:50.364Z,0
2022-12-31T05:53:50.345Z,0
2022-12-31T05:54:50.363Z,0
2022-12-31T05:55:50.338Z,0
2022-12-31T05:56:50.338Z,0
2022-12-31T05:57:50.342Z,0
2022-12-31T05:58:50.348Z,0
2022-12-31T05:59:50.355Z,0
2022-12-31T06:00:50.341Z,0
2022-12-31T06:01:50.340Z,0
2022-12-31T06:02:50.370Z,0
2022-12-31T06:03:50.425Z,0
2022-12-31T06:04:50.355Z,0
2022-12-31T06:05:50.342Z,0
2022-12-31T06:06:50.370Z,0
2022-12-31T06:07:50.371Z,0
2022-12-31T06:08:50.359Z,0
2022-12-31T06:09:50.380Z,0
2022-12-31T06:10:50.350Z,0
2022-12-31T06:11:50.370Z,0
2022-12-31T06:12:50.345Z,0
2022-12-31T06:13:50.351Z,0
2022-12-31T06:14:50.397Z,0
2022-12-31T06:15:50.360Z,0
2022-12-31T06:16:50.344Z,0
2022-12-31T06:17:50.356Z,0
2022-12-31T06:18:50.353Z,0
2022-12-31T06:19:50.379Z,0
2022-12-31T06:20:50.355Z,0
2022-12-31T06:21:50.373Z,0
2022-12-31T06:22:50.375Z,0
2022-12-31T06:23:50.360Z,0
2022-12-31T06:24:50.374Z,0
2022-12-31T06:25:50.362Z,0
2022-12-31T06:26:50.353Z,0
2022-12-31T06:27:50.356Z,0
2022-12-31T06:28:50.359Z,0
2022-12-31T06:29:50.377Z,0
2022-12-31T06:30:50.432Z,0
2022-12-31T06:31:50.356Z,0
2022-12-31T06:32:50.346Z,0
2022-12-31T06:33:50.349Z,0
2022-12-31T06:34:50.368Z,0
2022-12-31T06:35:50.348Z,0
2022-12-31T06:36:50.356Z,0
2022-12-31T06:37:50.370Z,0
2022-12-31T06:38:50.360Z,0
2022-12-31T06:39:50.377Z,0
2022-12-31T06:40:50.371Z,0
2022-12-31T06:41:50.342Z,0
2022-12-31T06:42:54.615Z,0
2022-12-31T06:43:50.356Z,0
2022-12-31T06:44:50.416Z,0
2022-12-31T06:45:50.351Z,0
2022-12-31T06:46:50.427Z,0
2022-12-31T06:47:50.347Z,0.01
2022-12-31T06:48:50.352Z,0.01
2022-12-31T06:49:50.373Z,0.01
2022-12-31T06:50:50.344Z,0.01
2022-12-31T06:51:50.359Z,0.01
2022-12-31T06:52:50.370Z,0.01
2022-12-31T06:53:50.351Z,0.01
2022-12-31T06:54:50.375Z,0.02
2022-12-31T06:55:50.343Z,0.02
2022-12-31T06:56:50.355Z,0.02
2022-12-31T06:57:50.361Z,0.02
2022-12-31T06:58:50.340Z,0.02
2022-12-31T06:59:50.358Z,0.03
2022-12-31T07:00:50.348Z,0.03
2022-12-31T07:01:50.496Z,0.03
2022-12-31T07:02:50.458Z,0.04
2022-12-31T07:03:50.342Z,0.04
2022-12-31T07:04:50.355Z,0.05
2022-12-31T07:05:50.342Z,0.05
2022-12-31T07:06:50.336Z,0.05
2022-12-31T07:07:50.355Z,0.06
2022-12-31T07:08:50.348Z,0.06
2022-12-31T07:09:50.360Z,0.06
2022-12-31T07:10:50.339Z,0.06
2022-12-31T07:11:50.390Z,0.07
2022-12-31T07:12:50.343Z,0.07
2022-12-31T07:13:50.346Z,0.08
2022-12-31T07:14:50.437Z,0.09
2022-12-31T07:15:50.397Z,0.1
2022-12-31T07:16:50.345Z,0.1
2022-12-31T07:17:50.338Z,0.11
2022-12-31T07:18:50.363Z,0.11
2022-12-31T07:19:57.128Z,0.11
2022-12-31T07:20:50.343Z,0.12
2022-12-31T07:21:50.356Z,0.13
2022-12-31T07:22:50.378Z,0.14
2022-12-31T07:23:50.357Z,0.14
2022-12-31T07:24:50.380Z,0.15
2022-12-31T07:25:50.356Z,0.16
2022-12-31T07:26:56.174Z,0.17
2022-12-31T07:27:50.365Z,0.18
2022-12-31T07:28:50.358Z,0.19
2022-12-31T07:29:50.384Z,0.19
2022-12-31T07:30:50.363Z,0.2
2022-12-31T07:31:50.362Z,0.2
2022-12-31T07:32:50.360Z,0.21
2022-12-31T07:33:50.362Z,0.22
2022-12-31T07:34:50.362Z,0.23
2022-12-31T07:35:50.355Z,0.25
2022-12-31T07:36:50.365Z,0.26
2022-12-31T07:37:50.376Z,0.27
2022-12-31T07:38:50.365Z,0.27
2022-12-31T07:39:50.371Z,0.27
2022-12-31T07:40:50.355Z,0.28
2022-12-31T07:41:50.359Z,0.28
2022-12-31T07:42:50.362Z,0.28
2022-12-31T07:43:50.373Z,0.27
2022-12-31T07:44:50.373Z,0.26
2022-12-31T07:45:50.365Z,0.27
2022-12-31T07:46:50.428Z,0.26
2022-12-31T07:47:50.359Z,0.26
2022-12-31T07:48:50.366Z,0.26
2022-12-31T07:49:50.368Z,0.27
2022-12-31T07:50:50.353Z,0.26
2022-12-31T07:51:50.359Z,0.25
2022-12-31T07:52:50.369Z,0.26
2022-12-31T07:53:50.371Z,0.28
2022-12-31T07:54:50.373Z,0.3
2022-12-31T07:55:50.352Z,0.32
2022-12-31T07:56:50.350Z,0.32
2022-12-31T07:57:50.391Z,0.32
2022-12-31T07:58:50.348Z,0.33
2022-12-31T07:59:50.367Z,0.36
2022-12-31T08:00:50.382Z,0.41
2022-12-31T08:01:50.444Z,0.47
2022-12-31T08:02:50.393Z,0.52
2022-12-31T08:03:50.359Z,0.56
2022-12-31T08:04:50.370Z,0.56
2022-12-31T08:05:50.345Z,0.56
2022-12-31T08:06:50.351Z,0.56
2022-12-31T08:07:50.360Z,0.55
2022-12-31T08:08:50.343Z,0.55
2022-12-31T08:09:50.355Z,0.55
2022-12-31T08:10:50.343Z,0.55
2022-12-31T08:11:50.336Z,0.57
2022-12-31T08:12:50.350Z,0.59
2022-12-31T08:13:50.348Z,0.62
2022-12-31T08:14:50.350Z,0.64
2022-12-31T08:15:50.419Z,0.67
2022-12-31T08:16:50.476Z,0.71
2022-12-31T08:17:50.349Z,0.75
2022-12-31T08:18:50.347Z,0.79
2022-12-31T08:19:50.372Z,0.8
2022-12-31T08:20:50.339Z,0.84
2022-12-31T08:21:50.335Z,0.85
2022-12-31T08:22:50.359Z,0.88
2022-12-31T08:23:50.343Z,0.91
2022-12-31T08:24:50.355Z,0.92
2022-12-31T08:25:50.337Z,0.9
2022-12-31T08:26:53.167Z,0.83
2022-12-31T08:27:50.347Z,0.83
2022-12-31T08:28:50.342Z,0.84
2022-12-31T08:29:50.359Z,0.87
2022-12-31T08:30:50.351Z,0.89
2022-12-31T08:31:50.386Z,0.91
2022-12-31T08:32:50.361Z,0.95
2022-12-31T08:33:50.358Z,0.95
2022-12-31T08:34:50.557Z,0.91
2022-12-31T08:35:50.353Z,0.98
2022-12-31T08:36:50.353Z,1.05
2022-12-31T08:37:50.370Z,0.98
2022-12-31T08:38:50.357Z,0.92
2022-12-31T08:39:50.373Z,0.89
2022-12-31T08:40:50.360Z,0.87
2022-12-31T08:41:50.358Z,0.89
2022-12-31T08:42:50.358Z,0.91
2022-12-31T08:43:50.354Z,0.94
2022-12-31T08:44:50.368Z,0.98
2022-12-31T08:45:50.379Z,0.99
2022-12-31T08:46:50.355Z,1
2022-12-31T08:47:52.742Z,0.99
2022-12-31T08:48:50.367Z,0.99
2022-12-31T08:49:50.377Z,0.92
2022-12-31T08:50:50.384Z,0.92
2022-12-31T08:51:50.352Z,0.92
2022-12-31T08:52:50.379Z,0.97
2022-12-31T08:53:50.440Z,0.97
2022-12-31T08:54:50.380Z,0.99
2022-12-31T08:55:50.354Z,1.04
2022-12-31T08:56:50.780Z,1.02
2022-12-31T08:57:50.353Z,0.99
2022-12-31T08:58:50.337Z,1.01
2022-12-31T08:59:50.355Z,1
2022-12-31T09:00:50.409Z,1
2022-12-31T09:01:50.438Z,1.05
2022-12-31T09:02:50.691Z,1.07
2022-12-31T09:03:50.378Z,1.09
2022-12-31T09:04:50.368Z,1.09
2022-12-31T09:05:50.354Z,1.14
2022-12-31T09:06:50.373Z,1.14
2022-12-31T09:07:52.737Z,1.09
2022-12-31T09:08:50.357Z,1.09
2022-12-31T09:09:50.385Z,1.12
2022-12-31T09:10:50.346Z,1.12
2022-12-31T09:11:50.350Z,1.14
2022-12-31T09:12:50.338Z,1.14
2022-12-31T09:13:50.341Z,1.18
2022-12-31T09:14:50.357Z,1.13
2022-12-31T09:15:50.337Z,1.22
2022-12-31T09:16:50.355Z,1.2
2022-12-31T09:17:50.338Z,1.24
2022-12-31T09:18:50.344Z,1.24
2022-12-31T09:19:50.359Z,1.21
2022-12-31T09:20:50.342Z,1.22
2022-12-31T09:21:50.337Z,1.25
2022-12-31T09:22:50.340Z,1.26
2022-12-31T09:23:50.351Z,1.31
2022-12-31T09:24:50.352Z,1.36
2022-12-31T09:25:50.336Z,1.4
2022-12-31T09:26:50.336Z,1.31
2022-12-31T09:27:50.340Z,1.42
2022-12-31T09:28:50.340Z,1.35
2022-12-31T09:29:50.354Z,1.41
2022-12-31T09:30:50.338Z,1.56
2022-12-31T09:31:50.434Z,1.94
2022-12-31T09:32:54.067Z,2.11
2022-12-31T09:33:50.342Z,2.83
2022-12-31T09:34:50.372Z,2.92
2022-12-31T09:35:50.359Z,3.04
2022-12-31T09:36:50.355Z,2.76
2022-12-31T09:37:50.367Z,2.6
2022-12-31T09:38:50.367Z,2.64
2022-12-31T09:39:50.371Z,2.72
2022-12-31T09:40:50.340Z,2.48
2022-12-31T09:41:50.363Z,1.89
2022-12-31T09:42:50.360Z,2.38
2022-12-31T09:43:52.480Z,2.04
2022-12-31T09:44:50.375Z,2.13
2022-12-31T09:45:50.437Z,1.96
2022-12-31T09:46:50.362Z,1.83
2022-12-31T09:47:50.367Z,1.58
2022-12-31T09:48:50.365Z,1.53
2022-12-31T09:49:50.376Z,1.53
2022-12-31T09:50:50.356Z,1.83
2022-12-31T09:51:50.351Z,2.44
2022-12-31T09:52:50.461Z,2.21
2022-12-31T09:53:50.376Z,2.41
2022-12-31T09:54:50.385Z,2.12
2022-12-31T09:55:50.355Z,1.7
2022-12-31T09:56:55.515Z,1.57
2022-12-31T09:57:50.367Z,1.54
2022-12-31T09:58:50.367Z,1.54
2022-12-31T09:59:50.445Z,1.53
2022-12-31T10:00:50.520Z,1.55
2022-12-31T10:01:50.441Z,1.52
2022-12-31T10:02:50.431Z,1.46
2022-12-31T10:03:50.361Z,1.4
2022-12-31T10:04:50.371Z,1.32
2022-12-31T10:05:50.365Z,1.2
2022-12-31T10:06:50.363Z,1.08
2022-12-31T10:07:53.437Z,1.07
2022-12-31T10:08:50.378Z,1.07
2022-12-31T10:09:50.361Z,1.07
2022-12-31T10:10:50.347Z,0.76
2022-12-31T10:11:50.355Z,0.67
2022-12-31T10:12:50.361Z,0.69
2022-12-31T10:13:50.371Z,0.73
2022-12-31T10:14:50.380Z,0.73
2022-12-31T10:15:50.359Z,0.69
2022-12-31T10:16:50.377Z,0.63
2022-12-31T10:17:50.361Z,0.59
2022-12-31T10:18:50.352Z,0.55
2022-12-31T10:19:50.393Z,0.74
2022-12-31T10:20:50.355Z,0.84
2022-12-31T10:21:50.365Z,0.84
2022-12-31T10:22:50.348Z,0.82
2022-12-31T10:23:50.374Z,0.78
2022-12-31T10:24:50.367Z,0.73
2022-12-31T10:25:50.342Z,0.71
2022-12-31T10:26:53.410Z,0.82
2022-12-31T10:27:50.338Z,0.8
2022-12-31T10:28:50.341Z,0.76
2022-12-31T10:29:50.353Z,0.79
2022-12-31T10:30:50.404Z,0.85
2022-12-31T10:31:50.345Z,1.06
2022-12-31T10:32:50.344Z,1.28
2022-12-31T10:33:50.336Z,1.4
2022-12-31T10:34:50.369Z,1.61
2022-12-31T10:35:50.355Z,2.49
2022-12-31T10:36:50.346Z,2.88
2022-12-31T10:37:50.342Z,2.14
2022-12-31T10:38:50.363Z,2.59
2022-12-31T10:39:50.372Z,3.6
2022-12-31T10:40:50.342Z,3.6
2022-12-31T10:41:50.345Z,3.83
2022-12-31T10:42:50.344Z,3.72
2022-12-31T10:43:50.351Z,3.57
2022-12-31T10:44:50.365Z,3.74
2022-12-31T10:45:50.394Z,3.72
2022-12-31T10:46:50.383Z,3.6
2022-12-31T10:47:50.367Z,3.55
2022-12-31T10:48:50.355Z,3.54
2022-12-31T10:49:50.371Z,3.83
2022-12-31T10:50:50.359Z,3.59
2022-12-31T10:51:50.354Z,3.03
2022-12-31T10:52:50.392Z,2.75
2022-12-31T10:53:50.472Z,2.43
2022-12-31T10:54:50.376Z,2.46
2022-12-31T10:55:50.361Z,2.38
2022-12-31T10:56:50.355Z,2.47
2022-12-31T10:57:50.346Z,2.26
2022-12-31T10:58:50.371Z,2.6
2022-12-31T10:59:50.496Z,1.78
2022-12-31T11:00:50.361Z,2.61
2022-12-31T11:01:50.447Z,2.59
2022-12-31T11:02:50.437Z,2.72
2022-12-31T11:03:50.360Z,2.22
2022-12-31T11:04:50.377Z,2.52
2022-12-31T11:05:50.419Z,2.58
2022-12-31T11:06:50.356Z,2.5
2022-12-31T11:07:50.357Z,2.34
2022-12-31T11:08:50.464Z,2.34
2022-12-31T11:09:50.382Z,2.26
2022-12-31T11:10:50.353Z,2.12
2022-12-31T11:11:50.361Z,2.27
2022-12-31T11:12:50.351Z,2.52
2022-12-31T11:13:50.356Z,2.35
2022-12-31T11:14:50.387Z,2.05
2022-12-31T11:15:50.584Z,1.99
2022-12-31T11:16:50.362Z,2.09
2022-12-31T11:17:50.368Z,2.03
2022-12-31T11:18:50.361Z,1.92
2022-12-31T11:19:50.375Z,1.83
2022-12-31T11:20:50.378Z,1.71
2022-12-31T11:21:50.367Z,1.7
2022-12-31T11:22:50.355Z,1.66
2022-12-31T11:23:50.383Z,1.64
2022-12-31T11:24:50.378Z,1.52
2022-12-31T11:25:50.348Z,1.48
2022-12-31T11:26:50.350Z,1.42
2022-12-31T11:27:50.349Z,1.35
2022-12-31T11:28:50.344Z,1.35
2022-12-31T11:29:50.358Z,1.22
2022-12-31T11:30:50.381Z,1.2
2022-12-31T11:31:50.338Z,1.14
2022-12-31T11:32:50.343Z,1.1
2022-12-31T11:33:50.668Z,1.05
2022-12-31T11:34:50.364Z,1.03
2022-12-31T11:35:50.341Z,1.08
2022-12-31T11:36:50.340Z,1.08
2022-12-31T11:37:50.776Z,1.05
2022-12-31T11:38:50.366Z,1.06
2022-12-31T11:39:50.366Z,1.06
2022-12-31T11:40:50.359Z,1.02
2022-12-31T11:41:50.338Z,1.01
2022-12-31T11:42:50.340Z,1.01
2022-12-31T11:43:50.347Z,1.05
2022-12-31T11:44:50.864Z,1.05
2022-12-31T11:45:50.880Z,1.03
2022-12-31T11:46:50.533Z,1.03
2022-12-31T11:48:28.551Z,1.02
2022-12-31T11:48:50.340Z,1
2022-12-31T11:49:50.366Z,0.99
2022-12-31T11:50:50.547Z,0.95
2022-12-31T11:51:50.887Z,0.93
2022-12-31T11:52:50.391Z,0.92
2022-12-31T11:53:50.372Z,0.9
2022-12-31T11:54:50.378Z,0.89
2022-12-31T11:55:50.355Z,0.89
2022-12-31T11:56:50.360Z,0.89
2022-12-31T11:57:50.366Z,0.88
2022-12-31T11:58:50.388Z,0.89
2022-12-31T11:59:50.375Z,0.89
2022-12-31T12:00:50.356Z,0.89
2022-12-31T12:01:50.348Z,0.89
2022-12-31T12:02:50.394Z,0.9
2022-12-31T12:03:50.469Z,0.9
2022-12-31T12:04:50.385Z,0.9
2022-12-31T12:05:50.359Z,0.91
2022-12-31T12:06:50.370Z,0.93
2022-12-31T12:07:50.359Z,0.93
2022-12-31T12:08:50.379Z,0.93
2022-12-31T12:09:50.372Z,0.97
2022-12-31T12:10:50.355Z,0.98
2022-12-31T12:11:50.351Z,1
2022-12-31T12:12:50.367Z,0.99
2022-12-31T12:13:50.357Z,0.99
2022-12-31T12:14:50.376Z,0.99
2022-12-31T12:15:50.396Z,0.99
2022-12-31T12:16:50.375Z,0.99
2022-12-31T12:17:50.364Z,1.03
2022-12-31T12:18:50.351Z,1.06
2022-12-31T12:19:50.369Z,1.1
2022-12-31T12:20:50.357Z,1.16
2022-12-31T12:21:50.708Z,1.23
2022-12-31T12:22:50.357Z,1.28
2022-12-31T12:23:50.404Z,1.19
2022-12-31T12:24:50.400Z,1.15
2022-12-31T12:25:50.351Z,1.13
2022-12-31T12:26:50.735Z,1.12
2022-12-31T12:27:50.363Z,1.12
2022-12-31T12:28:50.340Z,1.11
2022-12-31T12:29:50.438Z,1.1
2022-12-31T12:30:50.343Z,1.07
2022-12-31T12:31:50.802Z,1.05
2022-12-31T12:32:50.348Z,1.03
2022-12-31T12:33:50.351Z,1.02
2022-12-31T12:34:50.478Z,0.98
2022-12-31T12:35:50.347Z,0.96
2022-12-31T12:36:50.419Z,0.94
2022-12-31T12:37:50.359Z,0.91
2022-12-31T12:38:50.371Z,0.89
2022-12-31T12:39:50.366Z,0.89
2022-12-31T12:40:50.360Z,0.85
2022-12-31T12:41:50.357Z,0.85
2022-12-31T12:42:50.342Z,0.83
2022-12-31T12:43:50.347Z,0.8
2022-12-31T12:44:50.362Z,0.74
2022-12-31T12:45:52.388Z,0.68
2022-12-31T12:46:50.430Z,0.69
2022-12-31T12:47:50.337Z,0.68
2022-12-31T12:48:50.342Z,0.65
2022-12-31T12:49:50.362Z,0.62
2022-12-31T12:50:50.352Z,0.59
2022-12-31T12:51:50.352Z,0.56
2022-12-31T12:52:53.860Z,0.58
2022-12-31T12:53:50.359Z,0.59
2022-12-31T12:54:50.351Z,0.58
2022-12-31T12:55:50.339Z,0.57
2022-12-31T12:56:50.338Z,0.58
2022-12-31T12:57:50.343Z,0.52
2022-12-31T12:58:50.340Z,0.51
2022-12-31T12:59:50.361Z,0.52
2022-12-31T13:00:50.381Z,0.53
2022-12-31T13:01:50.487Z,0.56
2022-12-31T13:02:50.433Z,0.56
2022-12-31T13:04:23.766Z,0.6
2022-12-31T13:04:50.353Z,0.63
2022-12-31T13:05:50.339Z,0.63
2022-12-31T13:06:50.341Z,0.7
2022-12-31T13:07:50.359Z,0.76
2022-12-31T13:08:50.391Z,0.76
2022-12-31T13:09:50.445Z,0.76
2022-12-31T13:10:50.358Z,0.76
2022-12-31T13:11:50.353Z,0.81
2022-12-31T13:13:22.737Z,0.82
2022-12-31T13:13:50.346Z,0.82
2022-12-31T13:14:50.372Z,0.81
2022-12-31T13:15:50.355Z,0.8
2022-12-31T13:16:50.416Z,0.77
2022-12-31T13:17:55.062Z,0.73
2022-12-31T13:18:50.353Z,0.68
2022-12-31T13:19:50.377Z,0.64
2022-12-31T13:20:50.347Z,0.64
2022-12-31T13:21:50.355Z,0.65
2022-12-31T13:22:50.358Z,0.65
2022-12-31T13:23:50.378Z,0.56
2022-12-31T13:24:50.388Z,0.52
2022-12-31T13:25:50.355Z,0.48
2022-12-31T13:26:50.364Z,0.49
2022-12-31T13:27:50.349Z,0.52
2022-12-31T13:28:50.350Z,0.52
2022-12-31T13:29:50.389Z,0.46
2022-12-31T13:30:50.370Z,0.41
2022-12-31T13:31:50.424Z,0.38
2022-12-31T13:32:50.364Z,0.37
2022-12-31T13:33:50.353Z,0.35
2022-12-31T13:34:50.401Z,0.35
2022-12-31T13:35:50.359Z,0.38
2022-12-31T13:36:50.355Z,0.38
2022-12-31T13:37:50.367Z,0.38
2022-12-31T13:38:50.371Z,0.38
2022-12-31T13:39:50.373Z,0.37
2022-12-31T13:40:50.367Z,0.35
2022-12-31T13:41:50.359Z,0.36
2022-12-31T13:42:50.349Z,0.35
2022-12-31T13:43:51.145Z,0.37
2022-12-31T13:44:50.373Z,0.39
2022-12-31T13:45:50.418Z,0.4
2022-12-31T13:46:50.405Z,0.4
2022-12-31T13:47:50.362Z,0.39
2022-12-31T13:48:50.350Z,0.38
2022-12-31T13:49:50.367Z,0.35
2022-12-31T13:50:50.342Z,0.35
2022-12-31T13:51:50.359Z,0.35
2022-12-31T13:52:50.346Z,0.33
2022-12-31T13:53:50.349Z,0.34
2022-12-31T13:54:50.362Z,0.34
2022-12-31T13:55:56.502Z,0.34
2022-12-31T13:56:50.336Z,0.33
2022-12-31T13:57:50.343Z,0.31
2022-12-31T13:58:50.347Z,0.3
2022-12-31T13:59:50.371Z,0.29
2022-12-31T14:00:50.383Z,0.29